sensor_id;sensor_type;location;lat;lon;timestamp;P1;durP1;ratioP1;P2;durP2;ratioP2
52692;SDS011;68218;51.012;-1.648;2024-03-08T00:00:50;116.03;;;51.75;;
52692;SDS011;68218;51.012;-1.648;2024-03-08T00:03:16;112.13;;;51.35;;
52692;SDS011;68218;51.012;-1.648;2024-03-08T00:05:41;118.35;;;51.50;;
52692;SDS011;68218;51.012;-1.648;2024-03-08T00:08:07;112.78;;;48.80;;
52692;SDS011;68218;51.012;-1.648;2024-03-08T00:10:34;115.97;;;51.17;;
52692;SDS011;68218;51.012;-1.648;2024-03-08T00:13:00;116.15;;;51.95;;
52692;SDS011;68218;51.012;-1.648;2024-03-08T00:15:25;119.43;;;51.17;;
52692;SDS011;68218;51.012;-1.648;2024-03-08T00:17:51;112.65;;;50.10;;
52692;SDS011;68218;51.012;-1.648;2024-03-08T00:20:16;119.30;;;50.80;;
52692;SDS011;68218;51.012;-1.648;2024-03-08T00:22:45;117.65;;;51.85;;
52692;SDS011;68218;51.012;-1.648;2024-03-08T00:25:11;122.05;;;52.55;;
52692;SDS011;68218;51.012;-1.648;2024-03-08T00:27:39;116.43;;;51.47;;
52692;SDS011;68218;51.012;-1.648;2024-03-08T00:30:06;117.68;;;52.28;;
52692;SDS011;68218;51.012;-1.648;2024-03-08T00:32:32;116.72;;;50.83;;
52692;SDS011;68218;51.012;-1.648;2024-03-08T00:34:57;116.22;;;51.40;;
52692;SDS011;68218;51.012;-1.648;2024-03-08T00:37:23;116.78;;;51.10;;
52692;SDS011;68218;51.012;-1.648;2024-03-08T00:39:51;117.50;;;51.25;;
52692;SDS011;68218;51.012;-1.648;2024-03-08T00:42:18;116.85;;;50.33;;
52692;SDS011;68218;51.012;-1.648;2024-03-08T00:44:44;124.55;;;52.80;;
52692;SDS011;68218;51.012;-1.648;2024-03-08T00:47:10;120.45;;;52.90;;
52692;SDS011;68218;51.012;-1.648;2024-03-08T00:49:35;119.70;;;52.50;;
52692;SDS011;68218;51.012;-1.648;2024-03-08T00:52:04;128.65;;;53.47;;
52692;SDS011;68218;51.012;-1.648;2024-03-08T00:54:36;115.68;;;51.42;;
52692;SDS011;68218;51.012;-1.648;2024-03-08T00:57:01;116.53;;;51.70;;
52692;SDS011;68218;51.012;-1.648;2024-03-08T00:59:31;123.50;;;53.13;;
52692;SDS011;68218;51.012;-1.648;2024-03-08T01:01:57;129.68;;;53.45;;
52692;SDS011;68218;51.012;-1.648;2024-03-08T01:04:26;120.60;;;52.75;;
52692;SDS011;68218;51.012;-1.648;2024-03-08T01:06:54;126.10;;;52.38;;
52692;SDS011;68218;51.012;-1.648;2024-03-08T01:09:23;125.85;;;51.92;;
52692;SDS011;68218;51.012;-1.648;2024-03-08T01:11:49;125.32;;;52.45;;
52692;SDS011;68218;51.012;-1.648;2024-03-08T01:14:15;119.45;;;52.67;;
52692;SDS011;68218;51.012;-1.648;2024-03-08T01:16:40;127.70;;;53.20;;
52692;SDS011;68218;51.012;-1.648;2024-03-08T01:19:06;123.72;;;51.13;;
52692;SDS011;68218;51.012;-1.648;2024-03-08T01:21:31;126.72;;;52.83;;
52692;SDS011;68218;51.012;-1.648;2024-03-08T01:23:56;133.25;;;53.40;;
52692;SDS011;68218;51.012;-1.648;2024-03-08T01:26:22;123.93;;;52.65;;
52692;SDS011;68218;51.012;-1.648;2024-03-08T01:28:48;121.40;;;52.28;;
52692;SDS011;68218;51.012;-1.648;2024-03-08T01:31:14;126.35;;;52.95;;
52692;SDS011;68218;51.012;-1.648;2024-03-08T01:33:40;122.82;;;52.15;;
52692;SDS011;68218;51.012;-1.648;2024-03-08T01:36:06;121.38;;;51.53;;
52692;SDS011;68218;51.012;-1.648;2024-03-08T01:38:31;129.27;;;53.75;;
52692;SDS011;68218;51.012;-1.648;2024-03-08T01:40:56;131.15;;;53.65;;
52692;SDS011;68218;51.012;-1.648;2024-03-08T01:43:24;129.45;;;53.25;;
52692;SDS011;68218;51.012;-1.648;2024-03-08T01:45:54;132.57;;;53.45;;
52692;SDS011;68218;51.012;-1.648;2024-03-08T01:48:22;131.00;;;53.55;;
52692;SDS011;68218;51.012;-1.648;2024-03-08T01:50:49;128.48;;;54.58;;
52692;SDS011;68218;51.012;-1.648;2024-03-08T01:53:15;137.77;;;54.58;;
52692;SDS011;68218;51.012;-1.648;2024-03-08T01:55:44;139.80;;;55.58;;
52692;SDS011;68218;51.012;-1.648;2024-03-08T01:58:11;134.48;;;53.80;;
52692;SDS011;68218;51.012;-1.648;2024-03-08T02:00:39;137.48;;;56.63;;
52692;SDS011;68218;51.012;-1.648;2024-03-08T02:03:07;140.75;;;56.67;;
52692;SDS011;68218;51.012;-1.648;2024-03-08T02:05:32;141.25;;;57.45;;
52692;SDS011;68218;51.012;-1.648;2024-03-08T02:07:57;145.07;;;58.08;;
52692;SDS011;68218;51.012;-1.648;2024-03-08T02:10:23;147.90;;;57.80;;
52692;SDS011;68218;51.012;-1.648;2024-03-08T02:12:48;143.88;;;57.63;;
52692;SDS011;68218;51.012;-1.648;2024-03-08T02:15:14;137.68;;;55.50;;
52692;SDS011;68218;51.012;-1.648;2024-03-08T02:17:40;137.02;;;56.58;;
52692;SDS011;68218;51.012;-1.648;2024-03-08T02:20:05;141.50;;;57.22;;
52692;SDS011;68218;51.012;-1.648;2024-03-08T02:22:31;151.25;;;59.53;;
52692;SDS011;68218;51.012;-1.648;2024-03-08T02:24:59;149.80;;;60.38;;
52692;SDS011;68218;51.012;-1.648;2024-03-08T02:27:26;142.80;;;55.90;;
52692;SDS011;68218;51.012;-1.648;2024-03-08T02:29:53;150.35;;;58.08;;
52692;SDS011;68218;51.012;-1.648;2024-03-08T02:32:22;147.30;;;59.53;;
52692;SDS011;68218;51.012;-1.648;2024-03-08T02:34:48;153.15;;;57.83;;
52692;SDS011;68218;51.012;-1.648;2024-03-08T02:37:14;149.60;;;59.92;;
52692;SDS011;68218;51.012;-1.648;2024-03-08T02:39:40;153.93;;;60.72;;
52692;SDS011;68218;51.012;-1.648;2024-03-08T02:42:06;150.40;;;59.70;;
52692;SDS011;68218;51.012;-1.648;2024-03-08T02:44:32;151.68;;;59.83;;
52692;SDS011;68218;51.012;-1.648;2024-03-08T02:46:58;154.93;;;60.85;;
52692;SDS011;68218;51.012;-1.648;2024-03-08T02:49:24;153.35;;;60.35;;
52692;SDS011;68218;51.012;-1.648;2024-03-08T02:51:51;157.52;;;60.30;;
52692;SDS011;68218;51.012;-1.648;2024-03-08T02:54:16;159.70;;;62.85;;
52692;SDS011;68218;51.012;-1.648;2024-03-08T02:56:42;157.98;;;62.05;;
52692;SDS011;68218;51.012;-1.648;2024-03-08T02:59:07;163.57;;;62.75;;
52692;SDS011;68218;51.012;-1.648;2024-03-08T03:01:33;154.63;;;60.78;;
52692;SDS011;68218;51.012;-1.648;2024-03-08T03:03:59;159.95;;;61.80;;
52692;SDS011;68218;51.012;-1.648;2024-03-08T03:06:25;148.73;;;60.90;;
52692;SDS011;68218;51.012;-1.648;2024-03-08T03:08:50;158.70;;;62.08;;
52692;SDS011;68218;51.012;-1.648;2024-03-08T03:11:16;163.50;;;61.42;;
52692;SDS011;68218;51.012;-1.648;2024-03-08T03:13:42;159.50;;;61.53;;
52692;SDS011;68218;51.012;-1.648;2024-03-08T03:16:16;150.48;;;61.08;;
52692;SDS011;68218;51.012;-1.648;2024-03-08T03:18:43;160.32;;;61.63;;
52692;SDS011;68218;51.012;-1.648;2024-03-08T03:21:08;161.35;;;61.60;;
52692;SDS011;68218;51.012;-1.648;2024-03-08T03:23:34;152.98;;;60.42;;
52692;SDS011;68218;51.012;-1.648;2024-03-08T03:25:59;146.60;;;57.83;;
52692;SDS011;68218;51.012;-1.648;2024-03-08T03:28:25;149.73;;;59.35;;
52692;SDS011;68218;51.012;-1.648;2024-03-08T03:30:51;150.45;;;59.58;;
52692;SDS011;68218;51.012;-1.648;2024-03-08T03:33:17;165.27;;;62.63;;
52692;SDS011;68218;51.012;-1.648;2024-03-08T03:35:43;151.77;;;60.60;;
52692;SDS011;68218;51.012;-1.648;2024-03-08T03:38:09;158.48;;;59.20;;
52692;SDS011;68218;51.012;-1.648;2024-03-08T03:40:34;163.02;;;61.10;;
52692;SDS011;68218;51.012;-1.648;2024-03-08T03:43:00;153.50;;;62.60;;
52692;SDS011;68218;51.012;-1.648;2024-03-08T03:45:26;158.02;;;61.17;;
52692;SDS011;68218;51.012;-1.648;2024-03-08T03:47:52;159.60;;;61.40;;
52692;SDS011;68218;51.012;-1.648;2024-03-08T03:50:18;158.65;;;60.63;;
52692;SDS011;68218;51.012;-1.648;2024-03-08T03:52:48;155.07;;;60.38;;
52692;SDS011;68218;51.012;-1.648;2024-03-08T03:55:14;157.65;;;64.28;;
52692;SDS011;68218;51.012;-1.648;2024-03-08T03:57:40;159.02;;;61.40;;
52692;SDS011;68218;51.012;-1.648;2024-03-08T04:00:06;154.32;;;61.28;;
52692;SDS011;68218;51.012;-1.648;2024-03-08T04:02:38;159.60;;;62.17;;
52692;SDS011;68218;51.012;-1.648;2024-03-08T04:05:06;148.18;;;60.42;;
52692;SDS011;68218;51.012;-1.648;2024-03-08T04:07:33;167.25;;;62.50;;
52692;SDS011;68218;51.012;-1.648;2024-03-08T04:09:59;164.35;;;63.47;;
52692;SDS011;68218;51.012;-1.648;2024-03-08T04:12:24;163.25;;;64.45;;
52692;SDS011;68218;51.012;-1.648;2024-03-08T04:14:50;158.02;;;63.72;;
52692;SDS011;68218;51.012;-1.648;2024-03-08T04:17:15;155.80;;;61.75;;
52692;SDS011;68218;51.012;-1.648;2024-03-08T04:19:41;156.77;;;62.42;;
52692;SDS011;68218;51.012;-1.648;2024-03-08T04:22:07;162.43;;;62.70;;
52692;SDS011;68218;51.012;-1.648;2024-03-08T04:24:33;156.07;;;59.95;;
52692;SDS011;68218;51.012;-1.648;2024-03-08T04:26:58;151.70;;;59.05;;
52692;SDS011;68218;51.012;-1.648;2024-03-08T04:29:24;159.50;;;62.92;;
52692;SDS011;68218;51.012;-1.648;2024-03-08T04:31:49;153.25;;;60.33;;
52692;SDS011;68218;51.012;-1.648;2024-03-08T04:34:14;156.30;;;61.78;;
52692;SDS011;68218;51.012;-1.648;2024-03-08T04:36:40;164.00;;;63.65;;
52692;SDS011;68218;51.012;-1.648;2024-03-08T04:39:05;161.73;;;62.72;;
52692;SDS011;68218;51.012;-1.648;2024-03-08T04:41:30;161.63;;;62.10;;
52692;SDS011;68218;51.012;-1.648;2024-03-08T04:43:56;159.18;;;65.30;;
52692;SDS011;68218;51.012;-1.648;2024-03-08T04:46:22;158.15;;;61.53;;
52692;SDS011;68218;51.012;-1.648;2024-03-08T04:48:48;159.85;;;64.18;;
52692;SDS011;68218;51.012;-1.648;2024-03-08T04:51:13;152.30;;;61.67;;
52692;SDS011;68218;51.012;-1.648;2024-03-08T04:53:40;156.10;;;62.55;;
52692;SDS011;68218;51.012;-1.648;2024-03-08T04:56:05;159.85;;;61.42;;
52692;SDS011;68218;51.012;-1.648;2024-03-08T04:58:32;149.75;;;59.72;;
52692;SDS011;68218;51.012;-1.648;2024-03-08T05:01:00;153.82;;;61.60;;
52692;SDS011;68218;51.012;-1.648;2024-03-08T05:03:26;150.48;;;60.03;;
52692;SDS011;68218;51.012;-1.648;2024-03-08T05:05:52;155.77;;;59.95;;
52692;SDS011;68218;51.012;-1.648;2024-03-08T05:08:18;153.85;;;61.83;;
52692;SDS011;68218;51.012;-1.648;2024-03-08T05:10:43;162.15;;;62.38;;
52692;SDS011;68218;51.012;-1.648;2024-03-08T05:13:09;160.95;;;61.03;;
52692;SDS011;68218;51.012;-1.648;2024-03-08T05:15:34;158.63;;;61.90;;
52692;SDS011;68218;51.012;-1.648;2024-03-08T05:18:00;159.88;;;61.33;;
52692;SDS011;68218;51.012;-1.648;2024-03-08T05:20:25;153.40;;;60.63;;
52692;SDS011;68218;51.012;-1.648;2024-03-08T05:22:51;149.73;;;59.13;;
52692;SDS011;68218;51.012;-1.648;2024-03-08T05:25:16;153.68;;;60.63;;
52692;SDS011;68218;51.012;-1.648;2024-03-08T05:27:42;154.75;;;60.85;;
52692;SDS011;68218;51.012;-1.648;2024-03-08T05:30:08;151.05;;;60.38;;
52692;SDS011;68218;51.012;-1.648;2024-03-08T05:32:39;141.73;;;57.50;;
52692;SDS011;68218;51.012;-1.648;2024-03-08T05:35:09;151.52;;;59.58;;
52692;SDS011;68218;51.012;-1.648;2024-03-08T05:37:35;153.98;;;58.85;;
52692;SDS011;68218;51.012;-1.648;2024-03-08T05:40:01;149.40;;;58.45;;
52692;SDS011;68218;51.012;-1.648;2024-03-08T05:42:26;153.48;;;59.25;;
52692;SDS011;68218;51.012;-1.648;2024-03-08T05:44:53;149.95;;;59.45;;
52692;SDS011;68218;51.012;-1.648;2024-03-08T05:47:20;143.43;;;58.63;;
52692;SDS011;68218;51.012;-1.648;2024-03-08T05:49:45;149.75;;;58.22;;
52692;SDS011;68218;51.012;-1.648;2024-03-08T05:52:10;146.10;;;58.35;;
52692;SDS011;68218;51.012;-1.648;2024-03-08T05:54:36;145.05;;;58.03;;
52692;SDS011;68218;51.012;-1.648;2024-03-08T05:57:02;144.85;;;57.47;;
52692;SDS011;68218;51.012;-1.648;2024-03-08T05:59:27;159.40;;;58.80;;
52692;SDS011;68218;51.012;-1.648;2024-03-08T06:01:53;148.52;;;59.33;;
52692;SDS011;68218;51.012;-1.648;2024-03-08T06:04:18;144.73;;;58.90;;
52692;SDS011;68218;51.012;-1.648;2024-03-08T06:06:44;150.48;;;57.35;;
52692;SDS011;68218;51.012;-1.648;2024-03-08T06:09:09;146.85;;;58.00;;
52692;SDS011;68218;51.012;-1.648;2024-03-08T06:11:36;143.00;;;57.20;;
52692;SDS011;68218;51.012;-1.648;2024-03-08T06:14:03;138.63;;;55.13;;
52692;SDS011;68218;51.012;-1.648;2024-03-08T06:16:28;141.75;;;55.90;;
52692;SDS011;68218;51.012;-1.648;2024-03-08T06:18:54;136.60;;;55.63;;
52692;SDS011;68218;51.012;-1.648;2024-03-08T06:21:22;137.27;;;55.25;;
52692;SDS011;68218;51.012;-1.648;2024-03-08T06:23:47;134.82;;;53.67;;
52692;SDS011;68218;51.012;-1.648;2024-03-08T06:26:13;133.05;;;53.17;;
52692;SDS011;68218;51.012;-1.648;2024-03-08T06:28:38;132.30;;;53.60;;
52692;SDS011;68218;51.012;-1.648;2024-03-08T06:31:03;129.88;;;52.00;;
52692;SDS011;68218;51.012;-1.648;2024-03-08T06:33:29;123.90;;;52.83;;
52692;SDS011;68218;51.012;-1.648;2024-03-08T06:35:57;125.03;;;51.42;;
52692;SDS011;68218;51.012;-1.648;2024-03-08T06:38:23;117.03;;;49.92;;
52692;SDS011;68218;51.012;-1.648;2024-03-08T06:40:49;124.78;;;52.75;;
52692;SDS011;68218;51.012;-1.648;2024-03-08T06:43:16;117.50;;;49.95;;
52692;SDS011;68218;51.012;-1.648;2024-03-08T06:45:42;127.90;;;50.85;;
52692;SDS011;68218;51.012;-1.648;2024-03-08T06:48:13;114.38;;;47.65;;
52692;SDS011;68218;51.012;-1.648;2024-03-08T06:50:45;117.97;;;48.50;;
52692;SDS011;68218;51.012;-1.648;2024-03-08T06:53:11;116.40;;;49.70;;
52692;SDS011;68218;51.012;-1.648;2024-03-08T06:55:37;114.05;;;49.05;;
52692;SDS011;68218;51.012;-1.648;2024-03-08T06:58:02;116.93;;;48.72;;
52692;SDS011;68218;51.012;-1.648;2024-03-08T07:00:28;119.72;;;49.33;;
52692;SDS011;68218;51.012;-1.648;2024-03-08T07:02:55;113.28;;;47.80;;
52692;SDS011;68218;51.012;-1.648;2024-03-08T07:05:22;113.00;;;48.38;;
52692;SDS011;68218;51.012;-1.648;2024-03-08T07:07:49;111.55;;;47.53;;
52692;SDS011;68218;51.012;-1.648;2024-03-08T07:10:15;112.75;;;47.80;;
52692;SDS011;68218;51.012;-1.648;2024-03-08T07:12:41;108.03;;;46.60;;
52692;SDS011;68218;51.012;-1.648;2024-03-08T07:15:07;106.88;;;45.38;;
52692;SDS011;68218;51.012;-1.648;2024-03-08T07:17:33;110.85;;;45.92;;
52692;SDS011;68218;51.012;-1.648;2024-03-08T07:20:00;105.07;;;45.58;;
52692;SDS011;68218;51.012;-1.648;2024-03-08T07:22:32;101.95;;;45.72;;
52692;SDS011;68218;51.012;-1.648;2024-03-08T07:24:57;108.53;;;45.28;;
52692;SDS011;68218;51.012;-1.648;2024-03-08T07:27:43;97.68;;;43.30;;
52692;SDS011;68218;51.012;-1.648;2024-03-08T07:30:08;102.63;;;44.63;;
52692;SDS011;68218;51.012;-1.648;2024-03-08T07:32:35;97.65;;;44.17;;
52692;SDS011;68218;51.012;-1.648;2024-03-08T07:35:00;97.75;;;44.00;;
52692;SDS011;68218;51.012;-1.648;2024-03-08T07:37:27;107.07;;;46.00;;
52692;SDS011;68218;51.012;-1.648;2024-03-08T07:39:52;99.35;;;44.33;;
52692;SDS011;68218;51.012;-1.648;2024-03-08T07:42:17;97.63;;;44.78;;
52692;SDS011;68218;51.012;-1.648;2024-03-08T07:44:43;94.45;;;41.85;;
52692;SDS011;68218;51.012;-1.648;2024-03-08T07:47:08;88.63;;;41.58;;
52692;SDS011;68218;51.012;-1.648;2024-03-08T07:49:35;88.75;;;40.97;;
52692;SDS011;68218;51.012;-1.648;2024-03-08T07:52:00;91.07;;;40.58;;
52692;SDS011;68218;51.012;-1.648;2024-03-08T07:54:26;92.13;;;39.63;;
52692;SDS011;68218;51.012;-1.648;2024-03-08T07:56:52;90.15;;;40.90;;
52692;SDS011;68218;51.012;-1.648;2024-03-08T07:59:17;89.75;;;40.35;;
52692;SDS011;68218;51.012;-1.648;2024-03-08T08:01:43;88.13;;;40.03;;
52692;SDS011;68218;51.012;-1.648;2024-03-08T08:04:09;86.90;;;40.45;;
52692;SDS011;68218;51.012;-1.648;2024-03-08T08:06:37;87.65;;;40.08;;
52692;SDS011;68218;51.012;-1.648;2024-03-08T08:09:07;81.68;;;39.25;;
52692;SDS011;68218;51.012;-1.648;2024-03-08T08:11:39;83.68;;;38.60;;
52692;SDS011;68218;51.012;-1.648;2024-03-08T08:14:10;84.53;;;39.90;;
52692;SDS011;68218;51.012;-1.648;2024-03-08T08:16:36;86.97;;;40.33;;
52692;SDS011;68218;51.012;-1.648;2024-03-08T08:19:07;78.88;;;38.42;;
52692;SDS011;68218;51.012;-1.648;2024-03-08T08:21:36;80.22;;;39.42;;
52692;SDS011;68218;51.012;-1.648;2024-03-08T08:24:02;83.13;;;39.38;;
52692;SDS011;68218;51.012;-1.648;2024-03-08T08:26:28;79.40;;;38.03;;
52692;SDS011;68218;51.012;-1.648;2024-03-08T08:28:53;76.78;;;37.65;;
52692;SDS011;68218;51.012;-1.648;2024-03-08T08:31:19;79.28;;;39.28;;
52692;SDS011;68218;51.012;-1.648;2024-03-08T08:33:44;79.65;;;37.95;;
52692;SDS011;68218;51.012;-1.648;2024-03-08T08:36:10;75.47;;;36.97;;
52692;SDS011;68218;51.012;-1.648;2024-03-08T08:38:35;77.63;;;37.13;;
52692;SDS011;68218;51.012;-1.648;2024-03-08T08:41:00;75.10;;;37.47;;
52692;SDS011;68218;51.012;-1.648;2024-03-08T08:43:27;74.10;;;35.47;;
52692;SDS011;68218;51.012;-1.648;2024-03-08T08:45:53;74.10;;;36.17;;
52692;SDS011;68218;51.012;-1.648;2024-03-08T08:48:20;75.00;;;36.03;;
52692;SDS011;68218;51.012;-1.648;2024-03-08T08:50:45;67.07;;;34.30;;
52692;SDS011;68218;51.012;-1.648;2024-03-08T08:53:11;72.85;;;34.00;;
52692;SDS011;68218;51.012;-1.648;2024-03-08T08:55:39;72.72;;;34.40;;
52692;SDS011;68218;51.012;-1.648;2024-03-08T08:58:05;70.78;;;34.65;;
52692;SDS011;68218;51.012;-1.648;2024-03-08T09:00:32;72.65;;;33.55;;
52692;SDS011;68218;51.012;-1.648;2024-03-08T09:02:57;70.25;;;33.92;;
52692;SDS011;68218;51.012;-1.648;2024-03-08T09:05:23;66.72;;;32.97;;
52692;SDS011;68218;51.012;-1.648;2024-03-08T09:07:49;66.72;;;32.42;;
52692;SDS011;68218;51.012;-1.648;2024-03-08T09:10:15;67.53;;;34.10;;
52692;SDS011;68218;51.012;-1.648;2024-03-08T09:12:40;64.35;;;32.50;;
52692;SDS011;68218;51.012;-1.648;2024-03-08T09:15:06;67.72;;;32.72;;
52692;SDS011;68218;51.012;-1.648;2024-03-08T09:17:36;66.90;;;33.35;;
52692;SDS011;68218;51.012;-1.648;2024-03-08T09:20:04;69.50;;;32.72;;
52692;SDS011;68218;51.012;-1.648;2024-03-08T09:22:31;68.07;;;31.75;;
52692;SDS011;68218;51.012;-1.648;2024-03-08T09:24:57;64.32;;;31.83;;
52692;SDS011;68218;51.012;-1.648;2024-03-08T09:27:22;66.65;;;33.17;;
52692;SDS011;68218;51.012;-1.648;2024-03-08T09:29:48;68.82;;;33.33;;
52692;SDS011;68218;51.012;-1.648;2024-03-08T09:32:13;57.55;;;29.52;;
52692;SDS011;68218;51.012;-1.648;2024-03-08T09:34:39;65.35;;;31.50;;
52692;SDS011;68218;51.012;-1.648;2024-03-08T09:37:05;62.75;;;31.67;;
52692;SDS011;68218;51.012;-1.648;2024-03-08T09:39:30;70.60;;;30.85;;
52692;SDS011;68218;51.012;-1.648;2024-03-08T09:41:56;60.22;;;29.83;;
52692;SDS011;68218;51.012;-1.648;2024-03-08T09:44:21;63.90;;;30.15;;
52692;SDS011;68218;51.012;-1.648;2024-03-08T09:46:48;61.50;;;29.70;;
52692;SDS011;68218;51.012;-1.648;2024-03-08T09:49:16;64.90;;;30.95;;
52692;SDS011;68218;51.012;-1.648;2024-03-08T09:51:41;61.13;;;30.00;;
52692;SDS011;68218;51.012;-1.648;2024-03-08T09:54:07;59.47;;;29.70;;
52692;SDS011;68218;51.012;-1.648;2024-03-08T09:56:33;63.97;;;30.40;;
52692;SDS011;68218;51.012;-1.648;2024-03-08T09:59:03;67.90;;;30.75;;
52692;SDS011;68218;51.012;-1.648;2024-03-08T10:01:28;58.75;;;29.10;;
52692;SDS011;68218;51.012;-1.648;2024-03-08T10:03:54;60.22;;;28.67;;
52692;SDS011;68218;51.012;-1.648;2024-03-08T10:06:22;63.85;;;30.05;;
52692;SDS011;68218;51.012;-1.648;2024-03-08T10:08:49;65.40;;;29.75;;
52692;SDS011;68218;51.012;-1.648;2024-03-08T10:11:16;61.28;;;29.25;;
52692;SDS011;68218;51.012;-1.648;2024-03-08T10:13:42;54.38;;;27.73;;
52692;SDS011;68218;51.012;-1.648;2024-03-08T10:16:07;57.75;;;28.52;;
52692;SDS011;68218;51.012;-1.648;2024-03-08T10:18:33;56.30;;;29.35;;
52692;SDS011;68218;51.012;-1.648;2024-03-08T10:21:02;59.15;;;28.80;;
52692;SDS011;68218;51.012;-1.648;2024-03-08T10:23:32;59.75;;;29.23;;
52692;SDS011;68218;51.012;-1.648;2024-03-08T10:26:04;59.83;;;29.38;;
52692;SDS011;68218;51.012;-1.648;2024-03-08T10:28:34;55.90;;;29.00;;
52692;SDS011;68218;51.012;-1.648;2024-03-08T10:30:59;53.05;;;27.42;;
52692;SDS011;68218;51.012;-1.648;2024-03-08T10:33:25;55.22;;;28.25;;
52692;SDS011;68218;51.012;-1.648;2024-03-08T10:35:50;57.08;;;28.88;;
52692;SDS011;68218;51.012;-1.648;2024-03-08T10:38:16;56.72;;;27.30;;
52692;SDS011;68218;51.012;-1.648;2024-03-08T10:40:47;49.38;;;25.73;;
52692;SDS011;68218;51.012;-1.648;2024-03-08T10:43:18;52.78;;;25.83;;
52692;SDS011;68218;51.012;-1.648;2024-03-08T10:45:50;50.08;;;26.40;;
52692;SDS011;68218;51.012;-1.648;2024-03-08T10:48:38;48.78;;;25.73;;
52692;SDS011;68218;51.012;-1.648;2024-03-08T10:51:09;50.53;;;25.27;;
52692;SDS011;68218;51.012;-1.648;2024-03-08T10:53:37;51.30;;;25.08;;
52692;SDS011;68218;51.012;-1.648;2024-03-08T10:56:06;47.22;;;25.50;;
52692;SDS011;68218;51.012;-1.648;2024-03-08T10:58:32;48.03;;;24.88;;
52692;SDS011;68218;51.012;-1.648;2024-03-08T11:00:59;50.70;;;24.90;;
52692;SDS011;68218;51.012;-1.648;2024-03-08T11:06:05;44.58;;;23.38;;
52692;SDS011;68218;51.012;-1.648;2024-03-08T11:08:36;45.17;;;22.90;;
52692;SDS011;68218;51.012;-1.648;2024-03-08T11:11:02;48.85;;;23.30;;
52692;SDS011;68218;51.012;-1.648;2024-03-08T11:13:40;43.17;;;22.98;;
52692;SDS011;68218;51.012;-1.648;2024-03-08T11:16:09;45.83;;;23.27;;
52692;SDS011;68218;51.012;-1.648;2024-03-08T11:18:36;45.83;;;23.38;;
52692;SDS011;68218;51.012;-1.648;2024-03-08T11:21:05;42.92;;;22.35;;
52692;SDS011;68218;51.012;-1.648;2024-03-08T11:23:37;44.25;;;22.58;;
52692;SDS011;68218;51.012;-1.648;2024-03-08T11:26:02;42.17;;;22.70;;
52692;SDS011;68218;51.012;-1.648;2024-03-08T11:28:32;41.28;;;21.17;;
52692;SDS011;68218;51.012;-1.648;2024-03-08T11:33:29;39.42;;;20.38;;
52692;SDS011;68218;51.012;-1.648;2024-03-08T11:36:02;34.47;;;18.42;;
52692;SDS011;68218;51.012;-1.648;2024-03-08T11:38:53;38.03;;;19.10;;
52692;SDS011;68218;51.012;-1.648;2024-03-08T11:41:24;34.47;;;17.40;;
52692;SDS011;68218;51.012;-1.648;2024-03-08T11:44:01;32.55;;;17.48;;
52692;SDS011;68218;51.012;-1.648;2024-03-08T11:46:30;36.28;;;18.00;;
52692;SDS011;68218;51.012;-1.648;2024-03-08T11:48:55;34.95;;;18.02;;
52692;SDS011;68218;51.012;-1.648;2024-03-08T11:51:21;33.00;;;17.77;;
52692;SDS011;68218;51.012;-1.648;2024-03-08T11:53:48;35.67;;;17.75;;
52692;SDS011;68218;51.012;-1.648;2024-03-08T11:56:15;34.40;;;17.70;;
52692;SDS011;68218;51.012;-1.648;2024-03-08T11:58:41;31.50;;;16.60;;
52692;SDS011;68218;51.012;-1.648;2024-03-08T12:01:08;34.95;;;17.55;;
52692;SDS011;68218;51.012;-1.648;2024-03-08T12:03:39;33.40;;;17.77;;
52692;SDS011;68218;51.012;-1.648;2024-03-08T12:06:07;33.90;;;16.20;;
52692;SDS011;68218;51.012;-1.648;2024-03-08T12:08:34;31.40;;;16.75;;
52692;SDS011;68218;51.012;-1.648;2024-03-08T12:11:00;38.50;;;17.23;;
52692;SDS011;68218;51.012;-1.648;2024-03-08T12:13:26;29.80;;;16.95;;
52692;SDS011;68218;51.012;-1.648;2024-03-08T12:15:55;30.02;;;16.65;;
52692;SDS011;68218;51.012;-1.648;2024-03-08T12:18:21;31.27;;;16.95;;
52692;SDS011;68218;51.012;-1.648;2024-03-08T12:20:47;27.90;;;15.30;;
52692;SDS011;68218;51.012;-1.648;2024-03-08T12:23:15;28.90;;;15.93;;
52692;SDS011;68218;51.012;-1.648;2024-03-08T12:25:41;30.73;;;16.33;;
52692;SDS011;68218;51.012;-1.648;2024-03-08T12:28:10;31.40;;;15.80;;
52692;SDS011;68218;51.012;-1.648;2024-03-08T12:30:48;32.47;;;15.55;;
52692;SDS011;68218;51.012;-1.648;2024-03-08T12:33:19;29.48;;;15.10;;
52692;SDS011;68218;51.012;-1.648;2024-03-08T12:35:51;30.48;;;15.68;;
52692;SDS011;68218;51.012;-1.648;2024-03-08T12:38:20;27.17;;;14.95;;
52692;SDS011;68218;51.012;-1.648;2024-03-08T12:40:56;29.35;;;15.15;;
52692;SDS011;68218;51.012;-1.648;2024-03-08T12:43:23;30.52;;;15.55;;
52692;SDS011;68218;51.012;-1.648;2024-03-08T12:45:48;28.45;;;15.75;;
52692;SDS011;68218;51.012;-1.648;2024-03-08T12:48:14;32.25;;;15.57;;
52692;SDS011;68218;51.012;-1.648;2024-03-08T12:50:40;30.02;;;15.48;;
52692;SDS011;68218;51.012;-1.648;2024-03-08T12:53:06;30.75;;;15.48;;
52692;SDS011;68218;51.012;-1.648;2024-03-08T12:55:33;31.92;;;16.63;;
52692;SDS011;68218;51.012;-1.648;2024-03-08T12:57:58;30.77;;;16.67;;
52692;SDS011;68218;51.012;-1.648;2024-03-08T13:00:25;33.67;;;17.08;;
52692;SDS011;68218;51.012;-1.648;2024-03-08T13:02:53;28.23;;;15.68;;
52692;SDS011;68218;51.012;-1.648;2024-03-08T13:05:18;31.02;;;16.27;;
52692;SDS011;68218;51.012;-1.648;2024-03-08T13:07:44;32.20;;;16.33;;
52692;SDS011;68218;51.012;-1.648;2024-03-08T13:10:14;31.13;;;16.38;;
52692;SDS011;68218;51.012;-1.648;2024-03-08T13:12:41;28.10;;;15.23;;
52692;SDS011;68218;51.012;-1.648;2024-03-08T13:15:07;29.10;;;16.27;;
52692;SDS011;68218;51.012;-1.648;2024-03-08T13:17:34;32.30;;;16.35;;
52692;SDS011;68218;51.012;-1.648;2024-03-08T13:19:59;33.45;;;16.58;;
52692;SDS011;68218;51.012;-1.648;2024-03-08T13:22:25;30.85;;;16.77;;
52692;SDS011;68218;51.012;-1.648;2024-03-08T13:24:50;30.60;;;16.65;;
52692;SDS011;68218;51.012;-1.648;2024-03-08T13:27:17;32.13;;;16.58;;
52692;SDS011;68218;51.012;-1.648;2024-03-08T13:29:47;31.70;;;17.05;;
52692;SDS011;68218;51.012;-1.648;2024-03-08T13:32:13;33.72;;;16.98;;
52692;SDS011;68218;51.012;-1.648;2024-03-08T13:34:45;30.98;;;16.50;;
52692;SDS011;68218;51.012;-1.648;2024-03-08T13:37:12;29.15;;;15.93;;
52692;SDS011;68218;51.012;-1.648;2024-03-08T13:39:41;28.23;;;15.70;;
52692;SDS011;68218;51.012;-1.648;2024-03-08T13:42:11;30.08;;;15.52;;
52692;SDS011;68218;51.012;-1.648;2024-03-08T13:44:43;28.20;;;15.93;;
52692;SDS011;68218;51.012;-1.648;2024-03-08T13:47:09;28.55;;;15.60;;
52692;SDS011;68218;51.012;-1.648;2024-03-08T13:49:36;29.38;;;15.35;;
52692;SDS011;68218;51.012;-1.648;2024-03-08T13:52:02;28.67;;;15.55;;
52692;SDS011;68218;51.012;-1.648;2024-03-08T13:54:29;25.48;;;14.50;;
52692;SDS011;68218;51.012;-1.648;2024-03-08T13:56:56;26.20;;;13.73;;
52692;SDS011;68218;51.012;-1.648;2024-03-08T13:59:22;24.48;;;13.45;;
52692;SDS011;68218;51.012;-1.648;2024-03-08T14:01:47;28.33;;;15.18;;
52692;SDS011;68218;51.012;-1.648;2024-03-08T14:04:14;23.23;;;14.27;;